sensor_id;sensor_type;location;lat;lon;timestamp;P1;durP1;ratioP1;P2;durP2;ratioP2
25481;SDS011;13395;50.752;4.268;2023-10-31T00:01:02;18.52;;;12.02;;
25481;SDS011;13395;50.752;4.268;2023-10-31T00:03:28;18.77;;;11.05;;
25481;SDS011;13395;50.752;4.268;2023-10-31T00:05:53;16.92;;;10.48;;
25481;SDS011;13395;50.752;4.268;2023-10-31T00:08:19;20.10;;;10.93;;
25481;SDS011;13395;50.752;4.268;2023-10-31T00:10:45;18.35;;;10.18;;
25481;SDS011;13395;50.752;4.268;2023-10-31T00:13:11;14.30;;;9.57;;
25481;SDS011;13395;50.752;4.268;2023-10-31T00:15:37;16.85;;;9.13;;
25481;SDS011;13395;50.752;4.268;2023-10-31T00:18:02;13.98;;;8.23;;
25481;SDS011;13395;50.752;4.268;2023-10-31T00:20:28;16.98;;;8.32;;
25481;SDS011;13395;50.752;4.268;2023-10-31T00:22:54;13.93;;;8.07;;
25481;SDS011;13395;50.752;4.268;2023-10-31T00:25:20;12.63;;;8.05;;
25481;SDS011;13395;50.752;4.268;2023-10-31T00:27:45;12.50;;;8.02;;
25481;SDS011;13395;50.752;4.268;2023-10-31T00:30:11;17.60;;;7.82;;
25481;SDS011;13395;50.752;4.268;2023-10-31T00:32:37;11.98;;;6.97;;
25481;SDS011;13395;50.752;4.268;2023-10-31T00:35:02;12.32;;;7.55;;
25481;SDS011;13395;50.752;4.268;2023-10-31T00:37:28;14.30;;;7.07;;
25481;SDS011;13395;50.752;4.268;2023-10-31T00:39:54;13.30;;;6.82;;
25481;SDS011;13395;50.752;4.268;2023-10-31T00:42:19;9.65;;;7.28;;
25481;SDS011;13395;50.752;4.268;2023-10-31T00:44:45;10.85;;;6.95;;
25481;SDS011;13395;50.752;4.268;2023-10-31T00:47:10;10.73;;;7.03;;
25481;SDS011;13395;50.752;4.268;2023-10-31T00:49:36;11.95;;;6.60;;
25481;SDS011;13395;50.752;4.268;2023-10-31T00:52:02;10.75;;;6.85;;
25481;SDS011;13395;50.752;4.268;2023-10-31T00:54:28;10.77;;;7.13;;
25481;SDS011;13395;50.752;4.268;2023-10-31T00:56:53;9.05;;;7.13;;
25481;SDS011;13395;50.752;4.268;2023-10-31T00:59:19;12.93;;;6.55;;
25481;SDS011;13395;50.752;4.268;2023-10-31T01:01:44;12.35;;;6.93;;
25481;SDS011;13395;50.752;4.268;2023-10-31T01:04:10;10.90;;;7.70;;
25481;SDS011;13395;50.752;4.268;2023-10-31T01:06:42;14.63;;;6.72;;
25481;SDS011;13395;50.752;4.268;2023-10-31T01:09:09;9.02;;;6.03;;
25481;SDS011;13395;50.752;4.268;2023-10-31T01:11:35;12.13;;;6.68;;
25481;SDS011;13395;50.752;4.268;2023-10-31T01:14:00;8.77;;;6.43;;
25481;SDS011;13395;50.752;4.268;2023-10-31T01:16:26;12.15;;;6.28;;
25481;SDS011;13395;50.752;4.268;2023-10-31T01:18:52;13.30;;;6.85;;
25481;SDS011;13395;50.752;4.268;2023-10-31T01:21:17;10.05;;;7.38;;
25481;SDS011;13395;50.752;4.268;2023-10-31T01:23:43;14.77;;;7.90;;
25481;SDS011;13395;50.752;4.268;2023-10-31T01:26:09;10.18;;;7.75;;
25481;SDS011;13395;50.752;4.268;2023-10-31T01:28:34;12.10;;;7.85;;
25481;SDS011;13395;50.752;4.268;2023-10-31T01:31:00;12.02;;;8.77;;
25481;SDS011;13395;50.752;4.268;2023-10-31T01:33:25;12.60;;;7.78;;
25481;SDS011;13395;50.752;4.268;2023-10-31T01:35:51;10.52;;;8.55;;
25481;SDS011;13395;50.752;4.268;2023-10-31T01:38:17;10.65;;;7.75;;
25481;SDS011;13395;50.752;4.268;2023-10-31T01:40:42;9.68;;;7.88;;
25481;SDS011;13395;50.752;4.268;2023-10-31T01:43:08;11.45;;;8.13;;
25481;SDS011;13395;50.752;4.268;2023-10-31T01:45:33;10.18;;;7.90;;
25481;SDS011;13395;50.752;4.268;2023-10-31T01:47:59;9.75;;;7.50;;
25481;SDS011;13395;50.752;4.268;2023-10-31T01:50:25;9.18;;;7.30;;
25481;SDS011;13395;50.752;4.268;2023-10-31T01:52:51;9.23;;;7.60;;
25481;SDS011;13395;50.752;4.268;2023-10-31T01:55:17;9.38;;;7.65;;
25481;SDS011;13395;50.752;4.268;2023-10-31T01:57:44;9.45;;;8.00;;
25481;SDS011;13395;50.752;4.268;2023-10-31T02:00:12;8.50;;;7.25;;
25481;SDS011;13395;50.752;4.268;2023-10-31T02:02:40;9.85;;;7.85;;
25481;SDS011;13395;50.752;4.268;2023-10-31T02:05:09;11.48;;;7.60;;
25481;SDS011;13395;50.752;4.268;2023-10-31T02:07:35;13.35;;;8.23;;
25481;SDS011;13395;50.752;4.268;2023-10-31T02:10:00;10.23;;;7.75;;
25481;SDS011;13395;50.752;4.268;2023-10-31T02:12:36;8.98;;;7.70;;
25481;SDS011;13395;50.752;4.268;2023-10-31T02:15:02;10.85;;;8.00;;
25481;SDS011;13395;50.752;4.268;2023-10-31T02:17:28;8.30;;;7.40;;
25481;SDS011;13395;50.752;4.268;2023-10-31T02:19:54;8.85;;;7.43;;
25481;SDS011;13395;50.752;4.268;2023-10-31T02:22:21;10.98;;;7.85;;
25481;SDS011;13395;50.752;4.268;2023-10-31T02:24:47;12.32;;;7.65;;
25481;SDS011;13395;50.752;4.268;2023-10-31T02:27:13;8.98;;;7.93;;
25481;SDS011;13395;50.752;4.268;2023-10-31T02:29:41;8.50;;;7.53;;
25481;SDS011;13395;50.752;4.268;2023-10-31T02:32:07;11.55;;;7.53;;
25481;SDS011;13395;50.752;4.268;2023-10-31T02:34:32;9.98;;;7.32;;
25481;SDS011;13395;50.752;4.268;2023-10-31T02:36:59;12.50;;;8.05;;
25481;SDS011;13395;50.752;4.268;2023-10-31T02:39:25;18.90;;;7.28;;
25481;SDS011;13395;50.752;4.268;2023-10-31T02:41:50;9.63;;;8.07;;
25481;SDS011;13395;50.752;4.268;2023-10-31T02:44:16;9.05;;;6.65;;
25481;SDS011;13395;50.752;4.268;2023-10-31T02:46:41;11.27;;;7.20;;
25481;SDS011;13395;50.752;4.268;2023-10-31T02:49:07;10.07;;;7.70;;
25481;SDS011;13395;50.752;4.268;2023-10-31T02:51:34;10.55;;;7.15;;
25481;SDS011;13395;50.752;4.268;2023-10-31T02:54:00;8.93;;;6.40;;
25481;SDS011;13395;50.752;4.268;2023-10-31T02:56:26;9.43;;;7.03;;
25481;SDS011;13395;50.752;4.268;2023-10-31T02:58:51;9.63;;;7.50;;
25481;SDS011;13395;50.752;4.268;2023-10-31T03:01:17;7.55;;;6.03;;
25481;SDS011;13395;50.752;4.268;2023-10-31T03:03:44;8.98;;;7.57;;
25481;SDS011;13395;50.752;4.268;2023-10-31T03:06:10;9.43;;;6.97;;
25481;SDS011;13395;50.752;4.268;2023-10-31T03:08:36;10.65;;;7.55;;
25481;SDS011;13395;50.752;4.268;2023-10-31T03:11:01;10.55;;;7.55;;
25481;SDS011;13395;50.752;4.268;2023-10-31T03:13:27;11.23;;;6.88;;
25481;SDS011;13395;50.752;4.268;2023-10-31T03:15:53;11.45;;;6.80;;
25481;SDS011;13395;50.752;4.268;2023-10-31T03:18:18;9.55;;;7.60;;
25481;SDS011;13395;50.752;4.268;2023-10-31T03:20:44;10.15;;;7.55;;
25481;SDS011;13395;50.752;4.268;2023-10-31T03:23:13;11.40;;;7.72;;
25481;SDS011;13395;50.752;4.268;2023-10-31T03:25:40;8.77;;;7.40;;
25481;SDS011;13395;50.752;4.268;2023-10-31T03:28:18;9.13;;;7.65;;
25481;SDS011;13395;50.752;4.268;2023-10-31T03:30:48;11.68;;;8.45;;
25481;SDS011;13395;50.752;4.268;2023-10-31T03:33:14;11.70;;;8.18;;
25481;SDS011;13395;50.752;4.268;2023-10-31T03:35:40;12.88;;;8.75;;
25481;SDS011;13395;50.752;4.268;2023-10-31T03:38:05;14.80;;;8.85;;
25481;SDS011;13395;50.752;4.268;2023-10-31T03:40:31;12.63;;;8.32;;
25481;SDS011;13395;50.752;4.268;2023-10-31T03:42:56;12.60;;;8.68;;
25481;SDS011;13395;50.752;4.268;2023-10-31T03:45:22;11.13;;;9.10;;
25481;SDS011;13395;50.752;4.268;2023-10-31T03:47:47;15.10;;;9.57;;
25481;SDS011;13395;50.752;4.268;2023-10-31T03:50:13;14.55;;;9.60;;
25481;SDS011;13395;50.752;4.268;2023-10-31T03:52:39;11.65;;;9.10;;
25481;SDS011;13395;50.752;4.268;2023-10-31T03:55:04;13.75;;;9.93;;
25481;SDS011;13395;50.752;4.268;2023-10-31T03:57:30;14.38;;;9.10;;
25481;SDS011;13395;50.752;4.268;2023-10-31T03:59:56;14.50;;;9.68;;
25481;SDS011;13395;50.752;4.268;2023-10-31T04:02:21;12.13;;;9.75;;
25481;SDS011;13395;50.752;4.268;2023-10-31T04:04:48;12.57;;;9.80;;
25481;SDS011;13395;50.752;4.268;2023-10-31T04:07:14;15.10;;;9.85;;
25481;SDS011;13395;50.752;4.268;2023-10-31T04:09:40;15.00;;;10.30;;
25481;SDS011;13395;50.752;4.268;2023-10-31T04:12:05;15.57;;;10.77;;
25481;SDS011;13395;50.752;4.268;2023-10-31T04:14:31;14.55;;;10.82;;
25481;SDS011;13395;50.752;4.268;2023-10-31T04:16:57;17.55;;;10.10;;
25481;SDS011;13395;50.752;4.268;2023-10-31T04:19:22;13.13;;;10.38;;
25481;SDS011;13395;50.752;4.268;2023-10-31T04:21:48;22.35;;;10.80;;
25481;SDS011;13395;50.752;4.268;2023-10-31T04:24:13;14.73;;;10.75;;
25481;SDS011;13395;50.752;4.268;2023-10-31T04:26:42;15.52;;;10.23;;
25481;SDS011;13395;50.752;4.268;2023-10-31T04:29:07;18.10;;;10.65;;
25481;SDS011;13395;50.752;4.268;2023-10-31T04:31:33;14.57;;;11.00;;
25481;SDS011;13395;50.752;4.268;2023-10-31T04:33:59;19.10;;;11.02;;
25481;SDS011;13395;50.752;4.268;2023-10-31T04:36:24;15.63;;;11.82;;
25481;SDS011;13395;50.752;4.268;2023-10-31T04:38:50;13.40;;;10.30;;
25481;SDS011;13395;50.752;4.268;2023-10-31T04:41:15;19.58;;;10.63;;
25481;SDS011;13395;50.752;4.268;2023-10-31T04:43:41;15.60;;;10.50;;
25481;SDS011;13395;50.752;4.268;2023-10-31T04:46:07;19.35;;;11.23;;
25481;SDS011;13395;50.752;4.268;2023-10-31T04:48:32;17.70;;;10.52;;
25481;SDS011;13395;50.752;4.268;2023-10-31T04:50:58;14.73;;;10.32;;
25481;SDS011;13395;50.752;4.268;2023-10-31T04:53:24;20.55;;;10.27;;
25481;SDS011;13395;50.752;4.268;2023-10-31T04:55:50;16.13;;;9.77;;
25481;SDS011;13395;50.752;4.268;2023-10-31T04:58:15;14.75;;;10.18;;
25481;SDS011;13395;50.752;4.268;2023-10-31T05:00:41;15.43;;;10.63;;
25481;SDS011;13395;50.752;4.268;2023-10-31T05:03:06;19.25;;;11.07;;
25481;SDS011;13395;50.752;4.268;2023-10-31T05:05:32;15.13;;;10.43;;
25481;SDS011;13395;50.752;4.268;2023-10-31T05:07:57;14.32;;;10.20;;
25481;SDS011;13395;50.752;4.268;2023-10-31T05:10:23;14.65;;;10.32;;
25481;SDS011;13395;50.752;4.268;2023-10-31T05:12:49;19.50;;;10.35;;
25481;SDS011;13395;50.752;4.268;2023-10-31T05:15:15;17.60;;;9.55;;
25481;SDS011;13395;50.752;4.268;2023-10-31T05:17:41;19.27;;;10.80;;
25481;SDS011;13395;50.752;4.268;2023-10-31T05:20:07;18.73;;;11.13;;
25481;SDS011;13395;50.752;4.268;2023-10-31T05:22:34;16.52;;;11.02;;
25481;SDS011;13395;50.752;4.268;2023-10-31T05:25:00;18.00;;;9.95;;
25481;SDS011;13395;50.752;4.268;2023-10-31T05:27:25;13.63;;;9.93;;
25481;SDS011;13395;50.752;4.268;2023-10-31T05:29:51;15.38;;;9.40;;
25481;SDS011;13395;50.752;4.268;2023-10-31T05:32:17;12.82;;;9.75;;
25481;SDS011;13395;50.752;4.268;2023-10-31T05:34:42;13.77;;;9.73;;
25481;SDS011;13395;50.752;4.268;2023-10-31T05:37:08;14.65;;;10.00;;
25481;SDS011;13395;50.752;4.268;2023-10-31T05:39:33;14.75;;;9.63;;
25481;SDS011;13395;50.752;4.268;2023-10-31T05:42:01;17.52;;;10.68;;
25481;SDS011;13395;50.752;4.268;2023-10-31T05:44:27;11.20;;;9.38;;
25481;SDS011;13395;50.752;4.268;2023-10-31T05:46:53;14.48;;;10.20;;
25481;SDS011;13395;50.752;4.268;2023-10-31T05:49:19;14.02;;;10.05;;
25481;SDS011;13395;50.752;4.268;2023-10-31T05:51:49;14.85;;;9.95;;
25481;SDS011;13395;50.752;4.268;2023-10-31T05:54:15;12.75;;;9.13;;
25481;SDS011;13395;50.752;4.268;2023-10-31T05:56:41;13.52;;;9.57;;
25481;SDS011;13395;50.752;4.268;2023-10-31T05:59:07;20.70;;;11.07;;
25481;SDS011;13395;50.752;4.268;2023-10-31T06:01:33;14.40;;;9.57;;
25481;SDS011;13395;50.752;4.268;2023-10-31T06:03:58;15.00;;;9.57;;
25481;SDS011;13395;50.752;4.268;2023-10-31T06:06:24;12.52;;;9.20;;
25481;SDS011;13395;50.752;4.268;2023-10-31T06:08:49;18.20;;;9.52;;
25481;SDS011;13395;50.752;4.268;2023-10-31T06:11:15;12.52;;;8.82;;
25481;SDS011;13395;50.752;4.268;2023-10-31T06:13:41;12.10;;;8.85;;
25481;SDS011;13395;50.752;4.268;2023-10-31T06:16:07;15.77;;;9.60;;
25481;SDS011;13395;50.752;4.268;2023-10-31T06:18:32;15.50;;;10.15;;
25481;SDS011;13395;50.752;4.268;2023-10-31T06:20:58;10.80;;;8.18;;
25481;SDS011;13395;50.752;4.268;2023-10-31T06:23:24;13.10;;;8.60;;
25481;SDS011;13395;50.752;4.268;2023-10-31T06:25:50;12.38;;;8.15;;
25481;SDS011;13395;50.752;4.268;2023-10-31T06:28:17;10.90;;;8.02;;
25481;SDS011;13395;50.752;4.268;2023-10-31T06:30:42;10.82;;;7.97;;
25481;SDS011;13395;50.752;4.268;2023-10-31T06:33:08;16.05;;;9.15;;
25481;SDS011;13395;50.752;4.268;2023-10-31T06:35:35;13.43;;;9.18;;
25481;SDS011;13395;50.752;4.268;2023-10-31T06:38:01;13.73;;;9.60;;
25481;SDS011;13395;50.752;4.268;2023-10-31T06:40:27;12.98;;;10.13;;
25481;SDS011;13395;50.752;4.268;2023-10-31T06:42:52;14.82;;;9.77;;
25481;SDS011;13395;50.752;4.268;2023-10-31T06:45:18;14.27;;;9.35;;
25481;SDS011;13395;50.752;4.268;2023-10-31T06:47:44;11.98;;;9.32;;
25481;SDS011;13395;50.752;4.268;2023-10-31T06:50:10;20.00;;;10.05;;
25481;SDS011;13395;50.752;4.268;2023-10-31T06:52:36;18.15;;;9.55;;
25481;SDS011;13395;50.752;4.268;2023-10-31T06:55:01;15.15;;;9.43;;
25481;SDS011;13395;50.752;4.268;2023-10-31T06:57:27;15.38;;;8.98;;
25481;SDS011;13395;50.752;4.268;2023-10-31T06:59:53;13.93;;;9.63;;
25481;SDS011;13395;50.752;4.268;2023-10-31T07:02:18;16.35;;;9.85;;
25481;SDS011;13395;50.752;4.268;2023-10-31T07:04:44;13.52;;;9.23;;
25481;SDS011;13395;50.752;4.268;2023-10-31T07:07:10;14.90;;;9.68;;
25481;SDS011;13395;50.752;4.268;2023-10-31T07:09:35;15.68;;;9.43;;
25481;SDS011;13395;50.752;4.268;2023-10-31T07:12:01;12.52;;;9.70;;
25481;SDS011;13395;50.752;4.268;2023-10-31T07:14:27;15.50;;;9.95;;
25481;SDS011;13395;50.752;4.268;2023-10-31T07:16:52;13.88;;;9.38;;
25481;SDS011;13395;50.752;4.268;2023-10-31T07:19:18;14.15;;;10.38;;
25481;SDS011;13395;50.752;4.268;2023-10-31T07:21:44;15.27;;;9.90;;
25481;SDS011;13395;50.752;4.268;2023-10-31T07:24:09;15.52;;;10.00;;
25481;SDS011;13395;50.752;4.268;2023-10-31T07:26:35;11.35;;;9.27;;
25481;SDS011;13395;50.752;4.268;2023-10-31T07:29:01;13.77;;;9.25;;
25481;SDS011;13395;50.752;4.268;2023-10-31T07:31:26;10.43;;;8.35;;
25481;SDS011;13395;50.752;4.268;2023-10-31T07:33:52;12.57;;;9.13;;
25481;SDS011;13395;50.752;4.268;2023-10-31T07:36:18;14.38;;;8.45;;
25481;SDS011;13395;50.752;4.268;2023-10-31T07:38:43;11.55;;;7.72;;
25481;SDS011;13395;50.752;4.268;2023-10-31T07:41:09;11.88;;;7.25;;
25481;SDS011;13395;50.752;4.268;2023-10-31T07:43:34;8.70;;;6.80;;
25481;SDS011;13395;50.752;4.268;2023-10-31T07:46:00;14.63;;;7.70;;
25481;SDS011;13395;50.752;4.268;2023-10-31T07:48:26;10.02;;;5.88;;
25481;SDS011;13395;50.752;4.268;2023-10-31T07:50:51;11.35;;;8.32;;
25481;SDS011;13395;50.752;4.268;2023-10-31T07:53:17;13.98;;;6.00;;
25481;SDS011;13395;50.752;4.268;2023-10-31T07:55:42;10.55;;;6.18;;
25481;SDS011;13395;50.752;4.268;2023-10-31T07:58:11;9.85;;;6.50;;
25481;SDS011;13395;50.752;4.268;2023-10-31T08:00:37;7.22;;;6.05;;
25481;SDS011;13395;50.752;4.268;2023-10-31T08:03:04;16.70;;;5.93;;
25481;SDS011;13395;50.752;4.268;2023-10-31T08:05:29;11.95;;;5.82;;
25481;SDS011;13395;50.752;4.268;2023-10-31T08:07:55;9.15;;;6.30;;
25481;SDS011;13395;50.752;4.268;2023-10-31T08:10:21;8.55;;;6.60;;
25481;SDS011;13395;50.752;4.268;2023-10-31T08:12:46;12.93;;;7.20;;
25481;SDS011;13395;50.752;4.268;2023-10-31T08:15:12;13.48;;;7.18;;
25481;SDS011;13395;50.752;4.268;2023-10-31T08:17:38;10.90;;;5.90;;
25481;SDS011;13395;50.752;4.268;2023-10-31T08:20:04;12.30;;;6.60;;
25481;SDS011;13395;50.752;4.268;2023-10-31T08:22:30;10.20;;;5.38;;
25481;SDS011;13395;50.752;4.268;2023-10-31T08:24:56;10.77;;;5.32;;
25481;SDS011;13395;50.752;4.268;2023-10-31T08:27:22;9.85;;;4.68;;
25481;SDS011;13395;50.752;4.268;2023-10-31T08:29:48;6.82;;;4.93;;
25481;SDS011;13395;50.752;4.268;2023-10-31T08:32:13;8.68;;;5.07;;
25481;SDS011;13395;50.752;4.268;2023-10-31T08:34:39;9.80;;;4.97;;
25481;SDS011;13395;50.752;4.268;2023-10-31T08:37:04;17.90;;;6.20;;
25481;SDS011;13395;50.752;4.268;2023-10-31T08:39:30;9.88;;;5.20;;
25481;SDS011;13395;50.752;4.268;2023-10-31T08:41:57;10.65;;;5.65;;
25481;SDS011;13395;50.752;4.268;2023-10-31T08:44:23;6.97;;;4.75;;
25481;SDS011;13395;50.752;4.268;2023-10-31T08:46:48;9.15;;;4.75;;
25481;SDS011;13395;50.752;4.268;2023-10-31T08:49:14;14.07;;;5.60;;
25481;SDS011;13395;50.752;4.268;2023-10-31T08:51:41;9.45;;;5.28;;
25481;SDS011;13395;50.752;4.268;2023-10-31T08:54:07;14.35;;;5.63;;
25481;SDS011;13395;50.752;4.268;2023-10-31T08:56:33;7.03;;;5.50;;
25481;SDS011;13395;50.752;4.268;2023-10-31T08:58:59;16.80;;;5.20;;
25481;SDS011;13395;50.752;4.268;2023-10-31T09:01:26;8.40;;;5.18;;
25481;SDS011;13395;50.752;4.268;2023-10-31T09:03:52;12.68;;;5.40;;
25481;SDS011;13395;50.752;4.268;2023-10-31T09:06:17;9.05;;;5.20;;
25481;SDS011;13395;50.752;4.268;2023-10-31T09:08:43;10.30;;;4.93;;
25481;SDS011;13395;50.752;4.268;2023-10-31T09:11:09;8.65;;;4.30;;
25481;SDS011;13395;50.752;4.268;2023-10-31T09:13:34;12.35;;;4.97;;
25481;SDS011;13395;50.752;4.268;2023-10-31T09:16:00;8.05;;;4.68;;
25481;SDS011;13395;50.752;4.268;2023-10-31T09:18:25;8.40;;;4.78;;
25481;SDS011;13395;50.752;4.268;2023-10-31T09:20:51;12.82;;;5.47;;
25481;SDS011;13395;50.752;4.268;2023-10-31T09:23:17;17.45;;;5.10;;
25481;SDS011;13395;50.752;4.268;2023-10-31T09:25:43;8.38;;;5.28;;
25481;SDS011;13395;50.752;4.268;2023-10-31T09:28:09;11.73;;;5.38;;
25481;SDS011;13395;50.752;4.268;2023-10-31T09:30:35;10.88;;;5.60;;
25481;SDS011;13395;50.752;4.268;2023-10-31T09:33:00;10.63;;;5.70;;
25481;SDS011;13395;50.752;4.268;2023-10-31T09:35:26;16.65;;;5.55;;
25481;SDS011;13395;50.752;4.268;2023-10-31T09:37:52;11.25;;;5.25;;
25481;SDS011;13395;50.752;4.268;2023-10-31T09:40:18;10.98;;;5.22;;
25481;SDS011;13395;50.752;4.268;2023-10-31T09:42:44;11.73;;;4.78;;
25481;SDS011;13395;50.752;4.268;2023-10-31T09:45:10;7.53;;;4.07;;
25481;SDS011;13395;50.752;4.268;2023-10-31T09:47:37;6.82;;;4.15;;
25481;SDS011;13395;50.752;4.268;2023-10-31T09:50:03;7.15;;;3.95;;
25481;SDS011;13395;50.752;4.268;2023-10-31T09:52:29;8.05;;;3.80;;
25481;SDS011;13395;50.752;4.268;2023-10-31T09:54:54;12.13;;;4.78;;
25481;SDS011;13395;50.752;4.268;2023-10-31T09:57:21;10.45;;;4.53;;
25481;SDS011;13395;50.752;4.268;2023-10-31T09:59:46;8.30;;;4.90;;
25481;SDS011;13395;50.752;4.268;2023-10-31T10:02:12;12.38;;;4.88;;
25481;SDS011;13395;50.752;4.268;2023-10-31T10:04:38;5.63;;;4.20;;
25481;SDS011;13395;50.752;4.268;2023-10-31T10:07:05;10.80;;;5.07;;
25481;SDS011;13395;50.752;4.268;2023-10-31T10:09:31;10.13;;;4.32;;
25481;SDS011;13395;50.752;4.268;2023-10-31T10:12:00;13.52;;;5.25;;
25481;SDS011;13395;50.752;4.268;2023-10-31T10:14:27;10.13;;;4.18;;
25481;SDS011;13395;50.752;4.268;2023-10-31T10:16:53;12.90;;;4.57;;
25481;SDS011;13395;50.752;4.268;2023-10-31T10:19:21;12.27;;;4.65;;
25481;SDS011;13395;50.752;4.268;2023-10-31T10:24:13;17.08;;;5.85;;
25481;SDS011;13395;50.752;4.268;2023-10-31T10:26:39;8.77;;;4.45;;
25481;SDS011;13395;50.752;4.268;2023-10-31T10:29:04;8.38;;;4.70;;
25481;SDS011;13395;50.752;4.268;2023-10-31T10:31:30;12.90;;;5.35;;
25481;SDS011;13395;50.752;4.268;2023-10-31T10:33:55;13.02;;;4.90;;
25481;SDS011;13395;50.752;4.268;2023-10-31T10:36:21;16.48;;;5.28;;
25481;SDS011;13395;50.752;4.268;2023-10-31T10:38:50;14.20;;;5.88;;
25481;SDS011;13395;50.752;4.268;2023-10-31T10:41:20;8.80;;;5.10;;
25481;SDS011;13395;50.752;4.268;2023-10-31T10:43:48;14.68;;;6.57;;
25481;SDS011;13395;50.752;4.268;2023-10-31T10:46:17;15.38;;;7.28;;
25481;SDS011;13395;50.752;4.268;2023-10-31T10:48:46;19.55;;;11.57;;
25481;SDS011;13395;50.752;4.268;2023-10-31T10:51:24;20.40;;;11.90;;
25481;SDS011;13395;50.752;4.268;2023-10-31T10:54:24;28.60;;;13.45;;
25481;SDS011;13395;50.752;4.268;2023-10-31T10:56:54;24.05;;;12.10;;
25481;SDS011;13395;50.752;4.268;2023-10-31T10:59:49;25.85;;;13.48;;
25481;SDS011;13395;50.752;4.268;2023-10-31T11:02:19;26.35;;;13.23;;
25481;SDS011;13395;50.752;4.268;2023-10-31T11:04:45;27.17;;;13.98;;
25481;SDS011;13395;50.752;4.268;2023-10-31T11:07:12;28.05;;;13.82;;
25481;SDS011;13395;50.752;4.268;2023-10-31T11:09:38;29.38;;;14.98;;
25481;SDS011;13395;50.752;4.268;2023-10-31T11:12:06;30.90;;;15.90;;
25481;SDS011;13395;50.752;4.268;2023-10-31T11:14:33;29.38;;;14.90;;
25481;SDS011;13395;50.752;4.268;2023-10-31T11:17:01;23.38;;;14.35;;
25481;SDS011;13395;50.752;4.268;2023-10-31T11:19:36;32.28;;;15.18;;
25481;SDS011;13395;50.752;4.268;2023-10-31T11:22:03;32.22;;;14.93;;
25481;SDS011;13395;50.752;4.268;2023-10-31T11:24:31;28.85;;;13.95;;
25481;SDS011;13395;50.752;4.268;2023-10-31T11:26:59;25.65;;;14.10;;
25481;SDS011;13395;50.752;4.268;2023-10-31T11:29:26;19.35;;;12.32;;
25481;SDS011;13395;50.752;4.268;2023-10-31T11:31:54;20.60;;;11.05;;
25481;SDS011;13395;50.752;4.268;2023-10-31T11:34:20;18.92;;;9.82;;
25481;SDS011;13395;50.752;4.268;2023-10-31T11:36:46;15.50;;;8.98;;
25481;SDS011;13395;50.752;4.268;2023-10-31T11:39:17;20.25;;;9.80;;
25481;SDS011;13395;50.752;4.268;2023-10-31T11:41:49;14.65;;;7.80;;
25481;SDS011;13395;50.752;4.268;2023-10-31T11:44:16;15.60;;;8.27;;
25481;SDS011;13395;50.752;4.268;2023-10-31T11:46:42;17.17;;;8.82;;
25481;SDS011;13395;50.752;4.268;2023-10-31T11:49:08;16.58;;;7.75;;
25481;SDS011;13395;50.752;4.268;2023-10-31T11:51:34;15.68;;;8.65;;
25481;SDS011;13395;50.752;4.268;2023-10-31T11:54:01;16.40;;;7.63;;
25481;SDS011;13395;50.752;4.268;2023-10-31T11:56:27;18.45;;;8.00;;
25481;SDS011;13395;50.752;4.268;2023-10-31T12:01:28;13.77;;;7.65;;
25481;SDS011;13395;50.752;4.268;2023-10-31T12:03:54;13.18;;;6.80;;
25481;SDS011;13395;50.752;4.268;2023-10-31T12:06:19;13.35;;;7.60;;
25481;SDS011;13395;50.752;4.268;2023-10-31T12:08:46;13.40;;;7.55;;
25481;SDS011;13395;50.752;4.268;2023-10-31T12:16:26;14.05;;;7.53;;
25481;SDS011;13395;50.752;4.268;2023-10-31T12:19:00;11.95;;;7.95;;
25481;SDS011;13395;50.752;4.268;2023-10-31T12:24:04;10.10;;;5.80;;
25481;SDS011;13395;50.752;4.268;2023-10-31T12:26:31;7.75;;;5.93;;
25481;SDS011;13395;50.752;4.268;2023-10-31T12:31:35;9.68;;;5.18;;
25481;SDS011;13395;50.752;4.268;2023-10-31T12:34:04;10.82;;;5.63;;
25481;SDS011;13395;50.752;4.268;2023-10-31T12:36:30;10.30;;;6.30;;
25481;SDS011;13395;50.752;4.268;2023-10-31T12:38:56;7.60;;;5.10;;
25481;SDS011;13395;50.752;4.268;2023-10-31T12:41:22;8.55;;;4.95;;
25481;SDS011;13395;50.752;4.268;2023-10-31T12:43:48;4.32;;;2.80;;
25481;SDS011;13395;50.752;4.268;2023-10-31T12:46:30;5.47;;;3.15;;
25481;SDS011;13395;50.752;4.268;2023-10-31T12:48:59;3.70;;;2.28;;
25481;SDS011;13395;50.752;4.268;2023-10-31T12:51:25;10.05;;;3.35;;
25481;SDS011;13395;50.752;4.268;2023-10-31T12:53:51;4.97;;;2.80;;
25481;SDS011;13395;50.752;4.268;2023-10-31T12:59:04;4.47;;;3.17;;
25481;SDS011;13395;50.752;4.268;2023-10-31T13:01:32;5.32;;;3.65;;
25481;SDS011;13395;50.752;4.268;2023-10-31T13:04:05;7.05;;;4.22;;
25481;SDS011;13395;50.752;4.268;2023-10-31T13:06:31;10.30;;;5.25;;
25481;SDS011;13395;50.752;4.268;2023-10-31T13:08:57;10.63;;;5.10;;
25481;SDS011;13395;50.752;4.268;2023-10-31T13:11:23;11.70;;;6.20;;
25481;SDS011;13395;50.752;4.268;2023-10-31T13:13:53;10.73;;;5.93;;
25481;SDS011;13395;50.752;4.268;2023-10-31T13:16:19;13.88;;;6.72;;
25481;SDS011;13395;50.752;4.268;2023-10-31T13:18:44;21.45;;;9.30;;
25481;SDS011;13395;50.752;4.268;2023-10-31T13:21:10;17.02;;;9.65;;
25481;SDS011;13395;50.752;4.268;2023-10-31T13:23:37;18.63;;;9.63;;
25481;SDS011;13395;50.752;4.268;2023-10-31T13:26:03;13.45;;;8.85;;
25481;SDS011;13395;50.752;4.268;2023-10-31T13:28:29;15.02;;;8.13;;
25481;SDS011;13395;50.752;4.268;2023-10-31T13:30:57;15.23;;;8.68;;
25481;SDS011;13395;50.752;4.268;2023-10-31T13:33:22;14.45;;;8.65;;
25481;SDS011;13395;50.752;4.268;2023-10-31T13:35:48;13.45;;;7.43;;
25481;SDS011;13395;50.752;4.268;2023-10-31T13:38:14;13.30;;;7.30;;
25481;SDS011;13395;50.752;4.268;2023-10-31T13:40:39;10.65;;;6.70;;
25481;SDS011;13395;50.752;4.268;2023-10-31T13:43:05;17.08;;;6.93;;
25481;SDS011;13395;50.752;4.268;2023-10-31T13:45:31;11.52;;;6.57;;
25481;SDS011;13395;50.752;4.268;2023-10-31T13:47:56;7.90;;;6.32;;
25481;SDS011;13395;50.752;4.268;2023-10-31T13:50:22;9.00;;;5.43;;
25481;SDS011;13395;50.752;4.268;2023-10-31T13:52:48;9.98;;;4.80;;
25481;SDS011;13395;50.752;4.268;2023-10-31T13:55:14;9.75;;;4.75;;
25481;SDS011;13395;50.752;4.268;2023-10-31T13:57:39;9.02;;;4.60;;
25481;SDS011;13395;50.752;4.268;2023-10-31T14:00:06;9.88;;;4.13;;
25481;SDS011;13395;50.752;4.268;2023-10-31T14:02:33;11.48;;;4.70;;
25481;SDS011;13395;50.752;4.268;2023-10-31T14:05:00;6.80;;;3.63;;
25481;SDS011;13395;50.752;4.268;2023-10-31T14:07:26;10.63;;;4.13;;
25481;SDS011;13395;50.752;4.268;2023-10-31T14:09:52;9.93;;;3.67;;
25481;SDS011;13395;50.752;4.268;2023-10-31T14:12:18;6.07;;;3.95;;
25481;SDS011;13395;50.752;4.268;2023-10-31T14:14:44;9.25;;;3.80;;
25481;SDS011;13395;50.752;4.268;2023-10-31T14:17:13;7.20;;;3.55;;
25481;SDS011;13395;50.752;4.268;2023-10-31T14:19:39;6.72;;;3.40;;
25481;SDS011;13395;50.752;4.268;2023-10-31T14:22:04;8.32;;;3.55;;
25481;SDS011;13395;50.752;4.268;2023-10-31T14:24:30;7.60;;;3.28;;
25481;SDS011;13395;50.752;4.268;2023-10-31T14:26:57;6.13;;;3.17;;
25481;SDS011;13395;50.752;4.268;2023-10-31T14:29:24;9.98;;;4.38;;
25481;SDS011;13395;50.752;4.268;2023-10-31T14:31:49;12.65;;;4.68;;
25481;SDS011;13395;50.752;4.268;2023-10-31T14:34:15;9.40;;;3.85;;
25481;SDS011;13395;50.752;4.268;2023-10-31T14:36:41;7.63;;;3.67;;
25481;SDS011;13395;50.752;4.268;2023-10-31T14:39:07;10.82;;;4.57;;
25481;SDS011;13395;50.752;4.268;2023-10-31T14:41:33;9.95;;;4.22;;
25481;SDS011;13395;50.752;4.268;2023-10-31T14:43:59;11.68;;;4.30;;
25481;SDS011;13395;50.752;4.268;2023-10-31T14:46:27;9.68;;;3.72;;
25481;SDS011;13395;50.752;4.268;2023-10-31T14:48:53;9.50;;;3.63;;